sensor_id;sensor_type;location;lat;lon;timestamp;P1;durP1;ratioP1;P2;durP2;ratioP2
55368;SDS011;41247;49.736;8.752;2022-08-19T00:03:04;29.25;;;21.25;;
55368;SDS011;41247;49.736;8.752;2022-08-19T00:06:46;25.73;;;20.10;;
55368;SDS011;41247;49.736;8.752;2022-08-19T00:10:27;34.65;;;22.92;;
55368;SDS011;41247;49.736;8.752;2022-08-19T00:14:09;35.47;;;22.63;;
55368;SDS011;41247;49.736;8.752;2022-08-19T00:17:52;30.00;;;21.85;;
55368;SDS011;41247;49.736;8.752;2022-08-19T00:21:33;28.92;;;21.63;;
55368;SDS011;41247;49.736;8.752;2022-08-19T00:25:14;29.13;;;20.33;;
55368;SDS011;41247;49.736;8.752;2022-08-19T00:28:56;23.65;;;18.38;;
55368;SDS011;41247;49.736;8.752;2022-08-19T00:32:37;26.40;;;19.42;;
55368;SDS011;41247;49.736;8.752;2022-08-19T00:36:18;33.92;;;23.02;;
55368;SDS011;41247;49.736;8.752;2022-08-19T00:39:59;35.80;;;25.48;;
55368;SDS011;41247;49.736;8.752;2022-08-19T00:43:40;33.60;;;23.13;;
55368;SDS011;41247;49.736;8.752;2022-08-19T00:47:20;28.95;;;19.98;;
55368;SDS011;41247;49.736;8.752;2022-08-19T00:51:01;28.73;;;20.27;;
55368;SDS011;41247;49.736;8.752;2022-08-19T00:54:44;29.33;;;20.07;;
55368;SDS011;41247;49.736;8.752;2022-08-19T00:58:29;28.75;;;19.35;;
55368;SDS011;41247;49.736;8.752;2022-08-19T01:02:13;28.35;;;20.73;;
55368;SDS011;41247;49.736;8.752;2022-08-19T01:05:56;29.58;;;20.88;;
55368;SDS011;41247;49.736;8.752;2022-08-19T01:09:36;28.92;;;20.90;;
55368;SDS011;41247;49.736;8.752;2022-08-19T01:13:19;29.30;;;20.55;;
55368;SDS011;41247;49.736;8.752;2022-08-19T01:17:04;26.23;;;19.70;;
55368;SDS011;41247;49.736;8.752;2022-08-19T01:20:47;29.25;;;20.98;;
55368;SDS011;41247;49.736;8.752;2022-08-19T01:24:28;32.60;;;21.50;;
55368;SDS011;41247;49.736;8.752;2022-08-19T01:28:14;31.23;;;21.20;;
55368;SDS011;41247;49.736;8.752;2022-08-19T01:32:00;29.38;;;20.50;;
55368;SDS011;41247;49.736;8.752;2022-08-19T01:35:41;30.25;;;21.13;;
55368;SDS011;41247;49.736;8.752;2022-08-19T01:39:23;29.25;;;20.67;;
55368;SDS011;41247;49.736;8.752;2022-08-19T01:43:05;27.75;;;19.38;;
55368;SDS011;41247;49.736;8.752;2022-08-19T01:46:47;29.63;;;19.67;;
55368;SDS011;41247;49.736;8.752;2022-08-19T01:50:29;25.20;;;18.60;;
55368;SDS011;41247;49.736;8.752;2022-08-19T01:54:13;31.27;;;19.80;;
55368;SDS011;41247;49.736;8.752;2022-08-19T01:57:57;28.55;;;19.73;;
55368;SDS011;41247;49.736;8.752;2022-08-19T02:01:40;26.17;;;18.45;;
55368;SDS011;41247;49.736;8.752;2022-08-19T02:05:21;24.13;;;18.50;;
55368;SDS011;41247;49.736;8.752;2022-08-19T02:09:02;27.02;;;18.67;;
55368;SDS011;41247;49.736;8.752;2022-08-19T02:12:46;30.33;;;19.58;;
55368;SDS011;41247;49.736;8.752;2022-08-19T02:16:28;28.70;;;18.95;;
55368;SDS011;41247;49.736;8.752;2022-08-19T02:20:09;27.35;;;19.00;;
55368;SDS011;41247;49.736;8.752;2022-08-19T02:23:50;27.33;;;19.70;;
55368;SDS011;41247;49.736;8.752;2022-08-19T02:27:31;29.95;;;20.08;;
55368;SDS011;41247;49.736;8.752;2022-08-19T02:31:13;29.27;;;19.77;;
55368;SDS011;41247;49.736;8.752;2022-08-19T02:34:57;28.92;;;19.73;;
55368;SDS011;41247;49.736;8.752;2022-08-19T02:38:38;34.97;;;24.15;;
55368;SDS011;41247;49.736;8.752;2022-08-19T02:42:19;29.38;;;19.10;;
55368;SDS011;41247;49.736;8.752;2022-08-19T02:46:00;26.00;;;18.17;;
55368;SDS011;41247;49.736;8.752;2022-08-19T02:49:41;25.33;;;18.55;;
55368;SDS011;41247;49.736;8.752;2022-08-19T02:53:23;28.42;;;18.85;;
55368;SDS011;41247;49.736;8.752;2022-08-19T02:57:07;32.85;;;21.13;;
55368;SDS011;41247;49.736;8.752;2022-08-19T03:00:49;26.67;;;19.70;;
55368;SDS011;41247;49.736;8.752;2022-08-19T03:04:35;32.67;;;23.02;;
55368;SDS011;41247;49.736;8.752;2022-08-19T03:08:15;30.02;;;20.60;;
55368;SDS011;41247;49.736;8.752;2022-08-19T03:11:56;27.73;;;19.70;;
55368;SDS011;41247;49.736;8.752;2022-08-19T03:15:39;28.42;;;19.23;;
55368;SDS011;41247;49.736;8.752;2022-08-19T03:19:21;25.52;;;18.63;;
55368;SDS011;41247;49.736;8.752;2022-08-19T03:23:02;34.92;;;22.17;;
55368;SDS011;41247;49.736;8.752;2022-08-19T03:26:43;28.10;;;20.13;;
55368;SDS011;41247;49.736;8.752;2022-08-19T03:30:30;27.48;;;19.85;;
55368;SDS011;41247;49.736;8.752;2022-08-19T03:34:11;26.73;;;18.48;;
55368;SDS011;41247;49.736;8.752;2022-08-19T03:38:05;28.55;;;18.73;;
55368;SDS011;41247;49.736;8.752;2022-08-19T03:41:46;27.17;;;17.98;;
55368;SDS011;41247;49.736;8.752;2022-08-19T03:45:28;26.85;;;19.35;;
55368;SDS011;41247;49.736;8.752;2022-08-19T03:49:09;29.70;;;21.13;;
55368;SDS011;41247;49.736;8.752;2022-08-19T03:52:50;28.30;;;19.25;;
55368;SDS011;41247;49.736;8.752;2022-08-19T03:56:33;28.25;;;18.23;;
55368;SDS011;41247;49.736;8.752;2022-08-19T04:00:15;24.17;;;18.30;;
55368;SDS011;41247;49.736;8.752;2022-08-19T04:03:56;24.08;;;16.45;;
55368;SDS011;41247;49.736;8.752;2022-08-19T04:07:38;24.85;;;18.35;;
55368;SDS011;41247;49.736;8.752;2022-08-19T04:11:20;29.45;;;19.15;;
55368;SDS011;41247;49.736;8.752;2022-08-19T04:15:10;30.58;;;20.25;;
55368;SDS011;41247;49.736;8.752;2022-08-19T04:18:51;33.13;;;22.55;;
55368;SDS011;41247;49.736;8.752;2022-08-19T04:22:32;29.35;;;19.15;;
55368;SDS011;41247;49.736;8.752;2022-08-19T04:26:13;27.73;;;19.58;;
55368;SDS011;41247;49.736;8.752;2022-08-19T04:29:55;27.77;;;18.67;;
55368;SDS011;41247;49.736;8.752;2022-08-19T04:33:36;26.80;;;19.63;;
55368;SDS011;41247;49.736;8.752;2022-08-19T04:37:17;29.08;;;20.23;;
55368;SDS011;41247;49.736;8.752;2022-08-19T04:40:58;25.75;;;17.75;;
55368;SDS011;41247;49.736;8.752;2022-08-19T04:44:38;22.50;;;17.17;;
55368;SDS011;41247;49.736;8.752;2022-08-19T04:48:19;27.20;;;16.65;;
55368;SDS011;41247;49.736;8.752;2022-08-19T04:51:59;23.80;;;16.20;;
55368;SDS011;41247;49.736;8.752;2022-08-19T04:55:41;21.77;;;16.10;;
55368;SDS011;41247;49.736;8.752;2022-08-19T04:59:22;30.50;;;19.42;;
55368;SDS011;41247;49.736;8.752;2022-08-19T05:03:03;26.90;;;19.20;;
55368;SDS011;41247;49.736;8.752;2022-08-19T05:06:43;28.42;;;18.67;;
55368;SDS011;41247;49.736;8.752;2022-08-19T05:10:26;24.88;;;18.58;;
55368;SDS011;41247;49.736;8.752;2022-08-19T05:14:07;28.13;;;18.08;;
55368;SDS011;41247;49.736;8.752;2022-08-19T05:17:48;25.63;;;18.08;;
55368;SDS011;41247;49.736;8.752;2022-08-19T05:21:29;27.85;;;18.65;;
55368;SDS011;41247;49.736;8.752;2022-08-19T05:25:12;22.77;;;16.95;;
55368;SDS011;41247;49.736;8.752;2022-08-19T05:28:56;24.13;;;16.75;;
55368;SDS011;41247;49.736;8.752;2022-08-19T05:32:37;24.83;;;16.35;;
55368;SDS011;41247;49.736;8.752;2022-08-19T05:36:18;23.45;;;16.45;;
55368;SDS011;41247;49.736;8.752;2022-08-19T05:39:59;27.70;;;17.50;;
55368;SDS011;41247;49.736;8.752;2022-08-19T05:43:40;24.85;;;16.70;;
55368;SDS011;41247;49.736;8.752;2022-08-19T05:47:20;23.00;;;16.95;;
55368;SDS011;41247;49.736;8.752;2022-08-19T05:51:05;22.67;;;15.88;;
55368;SDS011;41247;49.736;8.752;2022-08-19T05:54:46;22.33;;;16.15;;
55368;SDS011;41247;49.736;8.752;2022-08-19T05:58:27;27.23;;;17.83;;
55368;SDS011;41247;49.736;8.752;2022-08-19T06:02:07;24.70;;;17.40;;
55368;SDS011;41247;49.736;8.752;2022-08-19T06:05:49;25.60;;;16.77;;
55368;SDS011;41247;49.736;8.752;2022-08-19T06:09:29;23.42;;;15.57;;
55368;SDS011;41247;49.736;8.752;2022-08-19T06:13:10;21.30;;;15.20;;
55368;SDS011;41247;49.736;8.752;2022-08-19T06:16:51;21.48;;;15.07;;
55368;SDS011;41247;49.736;8.752;2022-08-19T06:20:31;19.67;;;14.35;;
55368;SDS011;41247;49.736;8.752;2022-08-19T06:24:13;22.17;;;15.75;;
55368;SDS011;41247;49.736;8.752;2022-08-19T06:27:57;18.98;;;15.13;;
55368;SDS011;41247;49.736;8.752;2022-08-19T06:31:40;24.52;;;15.45;;
55368;SDS011;41247;49.736;8.752;2022-08-19T06:35:23;21.15;;;16.30;;
55368;SDS011;41247;49.736;8.752;2022-08-19T06:39:04;20.75;;;14.70;;
55368;SDS011;41247;49.736;8.752;2022-08-19T06:43:00;21.55;;;14.73;;
55368;SDS011;41247;49.736;8.752;2022-08-19T06:46:41;19.23;;;14.27;;
55368;SDS011;41247;49.736;8.752;2022-08-19T06:50:23;20.45;;;15.55;;
55368;SDS011;41247;49.736;8.752;2022-08-19T06:54:04;19.08;;;14.82;;
55368;SDS011;41247;49.736;8.752;2022-08-19T06:57:44;18.48;;;13.82;;
55368;SDS011;41247;49.736;8.752;2022-08-19T07:01:25;20.58;;;13.65;;
55368;SDS011;41247;49.736;8.752;2022-08-19T07:05:06;20.83;;;14.55;;
55368;SDS011;41247;49.736;8.752;2022-08-19T07:08:47;20.20;;;13.02;;
55368;SDS011;41247;49.736;8.752;2022-08-19T07:12:29;15.98;;;11.95;;
55368;SDS011;41247;49.736;8.752;2022-08-19T07:16:12;15.55;;;12.60;;
55368;SDS011;41247;49.736;8.752;2022-08-19T07:19:56;18.73;;;13.73;;
55368;SDS011;41247;49.736;8.752;2022-08-19T07:23:36;19.65;;;13.52;;
55368;SDS011;41247;49.736;8.752;2022-08-19T07:27:17;19.55;;;13.10;;
55368;SDS011;41247;49.736;8.752;2022-08-19T07:30:58;17.98;;;11.95;;
55368;SDS011;41247;49.736;8.752;2022-08-19T07:34:39;16.75;;;12.07;;
55368;SDS011;41247;49.736;8.752;2022-08-19T07:38:19;18.75;;;13.23;;
55368;SDS011;41247;49.736;8.752;2022-08-19T07:42:01;18.38;;;12.25;;
55368;SDS011;41247;49.736;8.752;2022-08-19T07:45:46;16.83;;;12.30;;
55368;SDS011;41247;49.736;8.752;2022-08-19T07:49:27;14.90;;;12.02;;
55368;SDS011;41247;49.736;8.752;2022-08-19T07:53:08;18.25;;;13.10;;
55368;SDS011;41247;49.736;8.752;2022-08-19T07:56:48;17.15;;;12.55;;
55368;SDS011;41247;49.736;8.752;2022-08-19T08:00:29;19.60;;;14.18;;
55368;SDS011;41247;49.736;8.752;2022-08-19T08:04:10;21.75;;;12.93;;
55368;SDS011;41247;49.736;8.752;2022-08-19T08:07:52;14.57;;;11.68;;
55368;SDS011;41247;49.736;8.752;2022-08-19T08:11:33;16.55;;;12.38;;
55368;SDS011;41247;49.736;8.752;2022-08-19T08:15:14;14.05;;;11.25;;
55368;SDS011;41247;49.736;8.752;2022-08-19T08:18:56;17.15;;;10.75;;
55368;SDS011;41247;49.736;8.752;2022-08-19T08:22:41;15.90;;;10.85;;
55368;SDS011;41247;49.736;8.752;2022-08-19T08:26:24;11.52;;;9.70;;
55368;SDS011;41247;49.736;8.752;2022-08-19T08:30:10;14.88;;;9.65;;
55368;SDS011;41247;49.736;8.752;2022-08-19T08:33:54;15.57;;;9.32;;
55368;SDS011;41247;49.736;8.752;2022-08-19T08:37:35;10.48;;;7.85;;
55368;SDS011;41247;49.736;8.752;2022-08-19T08:41:18;11.98;;;7.50;;
55368;SDS011;41247;49.736;8.752;2022-08-19T08:45:14;8.93;;;6.30;;
55368;SDS011;41247;49.736;8.752;2022-08-19T08:53:04;8.55;;;6.65;;
55368;SDS011;41247;49.736;8.752;2022-08-19T08:56:47;10.80;;;5.90;;
55368;SDS011;41247;49.736;8.752;2022-08-19T09:00:30;6.88;;;6.13;;
55368;SDS011;41247;49.736;8.752;2022-08-19T09:04:14;9.32;;;6.20;;
55368;SDS011;41247;49.736;8.752;2022-08-19T09:08:04;8.93;;;5.78;;
55368;SDS011;41247;49.736;8.752;2022-08-19T09:16:21;11.10;;;6.45;;
55368;SDS011;41247;49.736;8.752;2022-08-19T09:23:49;10.25;;;6.28;;
55368;SDS011;41247;49.736;8.752;2022-08-19T09:27:29;8.07;;;5.68;;
55368;SDS011;41247;49.736;8.752;2022-08-19T09:31:14;5.43;;;4.93;;
55368;SDS011;41247;49.736;8.752;2022-08-19T09:35:00;6.70;;;4.32;;
55368;SDS011;41247;49.736;8.752;2022-08-19T09:38:41;5.15;;;4.53;;
55368;SDS011;41247;49.736;8.752;2022-08-19T09:42:22;5.32;;;4.40;;
55368;SDS011;41247;49.736;8.752;2022-08-19T09:46:03;8.82;;;4.70;;
55368;SDS011;41247;49.736;8.752;2022-08-19T09:49:45;8.48;;;5.03;;
55368;SDS011;41247;49.736;8.752;2022-08-19T09:53:26;5.93;;;3.95;;
55368;SDS011;41247;49.736;8.752;2022-08-19T09:57:06;5.63;;;4.07;;
55368;SDS011;41247;49.736;8.752;2022-08-19T10:00:47;7.85;;;4.30;;
55368;SDS011;41247;49.736;8.752;2022-08-19T10:04:28;4.75;;;4.25;;
55368;SDS011;41247;49.736;8.752;2022-08-19T10:08:09;5.43;;;4.43;;
55368;SDS011;41247;49.736;8.752;2022-08-19T10:11:50;6.78;;;4.57;;
55368;SDS011;41247;49.736;8.752;2022-08-19T10:15:30;6.35;;;3.72;;
55368;SDS011;41247;49.736;8.752;2022-08-19T10:19:11;4.75;;;4.20;;
55368;SDS011;41247;49.736;8.752;2022-08-19T10:22:52;5.82;;;4.22;;
55368;SDS011;41247;49.736;8.752;2022-08-19T10:26:34;5.80;;;3.85;;
55368;SDS011;41247;49.736;8.752;2022-08-19T10:30:19;5.75;;;4.10;;
55368;SDS011;41247;49.736;8.752;2022-08-19T10:34:00;5.32;;;3.80;;
55368;SDS011;41247;49.736;8.752;2022-08-19T10:37:41;4.80;;;3.90;;
55368;SDS011;41247;49.736;8.752;2022-08-19T10:41:23;7.50;;;4.03;;
55368;SDS011;41247;49.736;8.752;2022-08-19T10:45:07;4.40;;;3.90;;
55368;SDS011;41247;49.736;8.752;2022-08-19T10:48:49;9.75;;;4.68;;
55368;SDS011;41247;49.736;8.752;2022-08-19T10:52:31;5.07;;;4.57;;
55368;SDS011;41247;49.736;8.752;2022-08-19T10:56:11;6.55;;;4.63;;
55368;SDS011;41247;49.736;8.752;2022-08-19T10:59:52;6.88;;;4.47;;
55368;SDS011;41247;49.736;8.752;2022-08-19T11:03:33;8.63;;;5.40;;
55368;SDS011;41247;49.736;8.752;2022-08-19T11:07:13;10.70;;;4.55;;
55368;SDS011;41247;49.736;8.752;2022-08-19T11:10:54;6.60;;;4.80;;
55368;SDS011;41247;49.736;8.752;2022-08-19T11:14:35;6.15;;;5.15;;
55368;SDS011;41247;49.736;8.752;2022-08-19T11:18:16;8.20;;;4.95;;
55368;SDS011;41247;49.736;8.752;2022-08-19T11:21:57;8.35;;;5.88;;
55368;SDS011;41247;49.736;8.752;2022-08-19T11:25:38;5.15;;;4.63;;
55368;SDS011;41247;49.736;8.752;2022-08-19T11:29:20;11.27;;;5.50;;
55368;SDS011;41247;49.736;8.752;2022-08-19T11:33:01;6.30;;;5.27;;
55368;SDS011;41247;49.736;8.752;2022-08-19T11:36:42;6.35;;;5.55;;
55368;SDS011;41247;49.736;8.752;2022-08-19T11:40:24;8.13;;;4.93;;
55368;SDS011;41247;49.736;8.752;2022-08-19T11:44:05;8.05;;;4.75;;
55368;SDS011;41247;49.736;8.752;2022-08-19T11:47:46;11.77;;;4.75;;
55368;SDS011;41247;49.736;8.752;2022-08-19T11:51:27;5.55;;;4.60;;
55368;SDS011;41247;49.736;8.752;2022-08-19T11:55:09;6.97;;;4.43;;
55368;SDS011;41247;49.736;8.752;2022-08-19T11:58:51;5.90;;;4.85;;
55368;SDS011;41247;49.736;8.752;2022-08-19T12:02:33;8.75;;;5.38;;
55368;SDS011;41247;49.736;8.752;2022-08-19T12:06:15;7.38;;;5.47;;
55368;SDS011;41247;49.736;8.752;2022-08-19T12:09:59;6.35;;;4.80;;
55368;SDS011;41247;49.736;8.752;2022-08-19T12:13:41;4.63;;;4.22;;
55368;SDS011;41247;49.736;8.752;2022-08-19T12:17:23;6.25;;;5.38;;
55368;SDS011;41247;49.736;8.752;2022-08-19T12:21:07;6.55;;;4.93;;
55368;SDS011;41247;49.736;8.752;2022-08-19T12:24:48;6.78;;;5.53;;
55368;SDS011;41247;49.736;8.752;2022-08-19T12:28:29;7.35;;;5.95;;
55368;SDS011;41247;49.736;8.752;2022-08-19T12:32:10;7.20;;;6.05;;
55368;SDS011;41247;49.736;8.752;2022-08-19T12:35:51;6.15;;;5.40;;
55368;SDS011;41247;49.736;8.752;2022-08-19T12:39:35;6.78;;;5.30;;
55368;SDS011;41247;49.736;8.752;2022-08-19T12:43:19;9.63;;;6.18;;
55368;SDS011;41247;49.736;8.752;2022-08-19T12:47:00;8.13;;;5.93;;
55368;SDS011;41247;49.736;8.752;2022-08-19T12:50:41;7.65;;;6.13;;
55368;SDS011;41247;49.736;8.752;2022-08-19T12:54:24;6.55;;;5.95;;
55368;SDS011;41247;49.736;8.752;2022-08-19T12:58:04;7.85;;;5.88;;
55368;SDS011;41247;49.736;8.752;2022-08-19T13:01:45;7.03;;;6.20;;
55368;SDS011;41247;49.736;8.752;2022-08-19T13:05:27;9.50;;;6.68;;
55368;SDS011;41247;49.736;8.752;2022-08-19T13:09:10;6.60;;;6.00;;
55368;SDS011;41247;49.736;8.752;2022-08-19T13:12:51;7.28;;;6.40;;
55368;SDS011;41247;49.736;8.752;2022-08-19T13:16:32;6.00;;;5.45;;
55368;SDS011;41247;49.736;8.752;2022-08-19T13:20:13;8.35;;;5.93;;
55368;SDS011;41247;49.736;8.752;2022-08-19T13:23:53;6.13;;;5.50;;
55368;SDS011;41247;49.736;8.752;2022-08-19T13:27:35;7.53;;;4.53;;
55368;SDS011;41247;49.736;8.752;2022-08-19T13:31:16;6.10;;;4.70;;
55368;SDS011;41247;49.736;8.752;2022-08-19T13:34:58;7.80;;;4.43;;
55368;SDS011;41247;49.736;8.752;2022-08-19T13:38:39;4.35;;;3.95;;
55368;SDS011;41247;49.736;8.752;2022-08-19T13:42:20;4.15;;;3.75;;
55368;SDS011;41247;49.736;8.752;2022-08-19T13:46:07;4.15;;;3.30;;
55368;SDS011;41247;49.736;8.752;2022-08-19T13:49:50;3.78;;;3.40;;
55368;SDS011;41247;49.736;8.752;2022-08-19T13:53:31;3.53;;;3.22;;
55368;SDS011;41247;49.736;8.752;2022-08-19T13:57:12;3.22;;;2.92;;
55368;SDS011;41247;49.736;8.752;2022-08-19T14:00:53;6.03;;;3.33;;
55368;SDS011;41247;49.736;8.752;2022-08-19T14:04:36;3.60;;;3.30;;
55368;SDS011;41247;49.736;8.752;2022-08-19T14:08:17;4.75;;;3.47;;
55368;SDS011;41247;49.736;8.752;2022-08-19T14:11:58;3.58;;;3.25;;
55368;SDS011;41247;49.736;8.752;2022-08-19T14:15:39;3.80;;;3.42;;
55368;SDS011;41247;49.736;8.752;2022-08-19T14:19:25;4.75;;;2.53;;
55368;SDS011;41247;49.736;8.752;2022-08-19T14:23:07;5.07;;;2.92;;
55368;SDS011;41247;49.736;8.752;2022-08-19T14:26:48;4.63;;;2.90;;
55368;SDS011;41247;49.736;8.752;2022-08-19T14:30:31;3.75;;;2.63;;
55368;SDS011;41247;49.736;8.752;2022-08-19T14:34:14;2.55;;;2.35;;
55368;SDS011;41247;49.736;8.752;2022-08-19T14:37:55;2.53;;;2.33;;
55368;SDS011;41247;49.736;8.752;2022-08-19T14:41:36;3.63;;;2.00;;
55368;SDS011;41247;49.736;8.752;2022-08-19T14:45:21;2.20;;;1.98;;
55368;SDS011;41247;49.736;8.752;2022-08-19T14:49:02;5.38;;;2.28;;
55368;SDS011;41247;49.736;8.752;2022-08-19T14:52:42;3.92;;;1.98;;
55368;SDS011;41247;49.736;8.752;2022-08-19T14:56:24;3.15;;;2.00;;
55368;SDS011;41247;49.736;8.752;2022-08-19T15:00:07;2.13;;;1.98;;
55368;SDS011;41247;49.736;8.752;2022-08-19T15:03:49;2.85;;;2.05;;
55368;SDS011;41247;49.736;8.752;2022-08-19T15:07:30;6.73;;;2.33;;
55368;SDS011;41247;49.736;8.752;2022-08-19T15:11:13;3.10;;;1.90;;
55368;SDS011;41247;49.736;8.752;2022-08-19T15:14:56;2.47;;;2.17;;
55368;SDS011;41247;49.736;8.752;2022-08-19T15:18:37;3.45;;;2.20;;
55368;SDS011;41247;49.736;8.752;2022-08-19T15:22:17;2.50;;;2.30;;
55368;SDS011;41247;49.736;8.752;2022-08-19T15:25:58;3.08;;;2.47;;
55368;SDS011;41247;49.736;8.752;2022-08-19T15:29:39;2.33;;;2.10;;
55368;SDS011;41247;49.736;8.752;2022-08-19T15:33:20;2.65;;;2.45;;
55368;SDS011;41247;49.736;8.752;2022-08-19T15:37:00;2.53;;;2.22;;
55368;SDS011;41247;49.736;8.752;2022-08-19T15:40:41;3.15;;;2.85;;
55368;SDS011;41247;49.736;8.752;2022-08-19T15:44:22;3.92;;;2.83;;
55368;SDS011;41247;49.736;8.752;2022-08-19T15:48:03;3.50;;;2.85;;
55368;SDS011;41247;49.736;8.752;2022-08-19T15:51:45;5.13;;;3.05;;
55368;SDS011;41247;49.736;8.752;2022-08-19T15:55:32;3.47;;;3.00;;
55368;SDS011;41247;49.736;8.752;2022-08-19T15:59:15;5.40;;;3.53;;
55368;SDS011;41247;49.736;8.752;2022-08-19T16:02:55;5.63;;;3.28;;
55368;SDS011;41247;49.736;8.752;2022-08-19T16:06:36;4.45;;;3.20;;
55368;SDS011;41247;49.736;8.752;2022-08-19T16:10:19;3.45;;;3.13;;
55368;SDS011;41247;49.736;8.752;2022-08-19T16:14:01;3.15;;;2.85;;
55368;SDS011;41247;49.736;8.752;2022-08-19T16:17:42;3.47;;;2.95;;
55368;SDS011;41247;49.736;8.752;2022-08-19T16:21:23;3.58;;;3.03;;
55368;SDS011;41247;49.736;8.752;2022-08-19T16:25:07;6.95;;;3.15;;
55368;SDS011;41247;49.736;8.752;2022-08-19T16:28:48;5.15;;;3.17;;
55368;SDS011;41247;49.736;8.752;2022-08-19T16:32:30;4.63;;;3.10;;
55368;SDS011;41247;49.736;8.752;2022-08-19T16:36:12;3.35;;;3.05;;
55368;SDS011;41247;49.736;8.752;2022-08-19T16:39:52;6.40;;;3.55;;
55368;SDS011;41247;49.736;8.752;2022-08-19T16:43:33;3.33;;;3.03;;
55368;SDS011;41247;49.736;8.752;2022-08-19T16:47:14;3.47;;;3.13;;
55368;SDS011;41247;49.736;8.752;2022-08-19T16:50:55;4.65;;;3.17;;
55368;SDS011;41247;49.736;8.752;2022-08-19T16:54:37;3.70;;;3.38;;
55368;SDS011;41247;49.736;8.752;2022-08-19T16:58:19;4.93;;;2.88;;
55368;SDS011;41247;49.736;8.752;2022-08-19T17:02:00;3.57;;;3.27;;
55368;SDS011;41247;49.736;8.752;2022-08-19T17:05:42;4.97;;;3.63;;
55368;SDS011;41247;49.736;8.752;2022-08-19T17:09:24;3.63;;;3.25;;
55368;SDS011;41247;49.736;8.752;2022-08-19T17:13:05;4.38;;;3.22;;
55368;SDS011;41247;49.736;8.752;2022-08-19T17:16:46;2.95;;;2.75;;
55368;SDS011;41247;49.736;8.752;2022-08-19T17:20:26;4.45;;;3.30;;
55368;SDS011;41247;49.736;8.752;2022-08-19T17:24:07;4.32;;;3.20;;
55368;SDS011;41247;49.736;8.752;2022-08-19T17:27:49;4.75;;;3.17;;
55368;SDS011;41247;49.736;8.752;2022-08-19T17:31:30;6.25;;;2.90;;
55368;SDS011;41247;49.736;8.752;2022-08-19T17:35:11;5.05;;;3.40;;
55368;SDS011;41247;49.736;8.752;2022-08-19T17:38:52;4.82;;;3.88;;
55368;SDS011;41247;49.736;8.752;2022-08-19T17:42:34;8.63;;;3.55;;
55368;SDS011;41247;49.736;8.752;2022-08-19T17:46:15;4.65;;;4.10;;
55368;SDS011;41247;49.736;8.752;2022-08-19T17:49:56;4.63;;;4.22;;
55368;SDS011;41247;49.736;8.752;2022-08-19T17:53:37;4.93;;;4.10;;
55368;SDS011;41247;49.736;8.752;2022-08-19T17:57:17;6.13;;;4.13;;
55368;SDS011;41247;49.736;8.752;2022-08-19T18:00:58;4.45;;;4.05;;
55368;SDS011;41247;49.736;8.752;2022-08-19T18:04:38;4.35;;;3.95;;
55368;SDS011;41247;49.736;8.752;2022-08-19T18:08:19;5.32;;;4.30;;
55368;SDS011;41247;49.736;8.752;2022-08-19T18:12:00;5.43;;;4.68;;
55368;SDS011;41247;49.736;8.752;2022-08-19T18:15:41;7.78;;;5.22;;
55368;SDS011;41247;49.736;8.752;2022-08-19T18:19:24;7.63;;;4.95;;
55368;SDS011;41247;49.736;8.752;2022-08-19T18:23:06;9.40;;;5.47;;
55368;SDS011;41247;49.736;8.752;2022-08-19T18:26:46;6.50;;;5.78;;
55368;SDS011;41247;49.736;8.752;2022-08-19T18:30:28;8.02;;;5.78;;
55368;SDS011;41247;49.736;8.752;2022-08-19T18:34:09;6.60;;;5.80;;
55368;SDS011;41247;49.736;8.752;2022-08-19T18:37:50;7.97;;;5.93;;
55368;SDS011;41247;49.736;8.752;2022-08-19T18:41:31;7.15;;;6.43;;
55368;SDS011;41247;49.736;8.752;2022-08-19T18:45:11;9.60;;;5.63;;
55368;SDS011;41247;49.736;8.752;2022-08-19T18:48:52;7.25;;;5.38;;
55368;SDS011;41247;49.736;8.752;2022-08-19T18:52:33;7.07;;;6.38;;
55368;SDS011;41247;49.736;8.752;2022-08-19T18:56:17;6.88;;;6.07;;
55368;SDS011;41247;49.736;8.752;2022-08-19T18:59:59;7.13;;;6.43;;
55368;SDS011;41247;49.736;8.752;2022-08-19T19:03:46;13.80;;;6.20;;
55368;SDS011;41247;49.736;8.752;2022-08-19T19:07:32;8.98;;;7.05;;
55368;SDS011;41247;49.736;8.752;2022-08-19T19:11:14;7.30;;;6.55;;
55368;SDS011;41247;49.736;8.752;2022-08-19T19:15:07;8.25;;;6.22;;
55368;SDS011;41247;49.736;8.752;2022-08-19T19:18:48;9.38;;;6.90;;
55368;SDS011;41247;49.736;8.752;2022-08-19T19:22:29;10.30;;;6.13;;
55368;SDS011;41247;49.736;8.752;2022-08-19T19:26:10;7.80;;;5.90;;
55368;SDS011;41247;49.736;8.752;2022-08-19T19:29:52;9.25;;;5.80;;
55368;SDS011;41247;49.736;8.752;2022-08-19T19:33:32;8.20;;;5.90;;
55368;SDS011;41247;49.736;8.752;2022-08-19T19:37:13;6.78;;;6.18;;
55368;SDS011;41247;49.736;8.752;2022-08-19T19:40:54;8.65;;;6.00;;
55368;SDS011;41247;49.736;8.752;2022-08-19T19:44:38;6.30;;;5.63;;
55368;SDS011;41247;49.736;8.752;2022-08-19T19:48:19;6.50;;;5.90;;
55368;SDS011;41247;49.736;8.752;2022-08-19T19:52:00;9.70;;;5.75;;
55368;SDS011;41247;49.736;8.752;2022-08-19T19:55:41;6.82;;;5.18;;
55368;SDS011;41247;49.736;8.752;2022-08-19T19:59:22;6.03;;;5.53;;
55368;SDS011;41247;49.736;8.752;2022-08-19T20:03:03;5.88;;;5.30;;
55368;SDS011;41247;49.736;8.752;2022-08-19T20:06:44;7.22;;;5.13;;
55368;SDS011;41247;49.736;8.752;2022-08-19T20:10:25;6.13;;;5.53;;
55368;SDS011;41247;49.736;8.752;2022-08-19T20:14:12;9.45;;;6.38;;
55368;SDS011;41247;49.736;8.752;2022-08-19T20:18:03;9.25;;;5.95;;
55368;SDS011;41247;49.736;8.752;2022-08-19T20:21:44;8.48;;;6.50;;
55368;SDS011;41247;49.736;8.752;2022-08-19T20:25:29;9.40;;;7.25;;
55368;SDS011;41247;49.736;8.752;2022-08-19T20:29:10;10.00;;;7.78;;
55368;SDS011;41247;49.736;8.752;2022-08-19T20:32:50;10.32;;;7.72;;
55368;SDS011;41247;49.736;8.752;2022-08-19T20:36:31;11.82;;;8.60;;
55368;SDS011;41247;49.736;8.752;2022-08-19T20:40:12;9.35;;;7.85;;
55368;SDS011;41247;49.736;8.752;2022-08-19T20:43:54;15.75;;;8.85;;
55368;SDS011;41247;49.736;8.752;2022-08-19T20:47:36;9.70;;;8.15;;
55368;SDS011;41247;49.736;8.752;2022-08-19T20:51:17;11.80;;;8.50;;
55368;SDS011;41247;49.736;8.752;2022-08-19T20:54:57;9.98;;;8.43;;
55368;SDS011;41247;49.736;8.752;2022-08-19T20:58:39;14.35;;;8.55;;
55368;SDS011;41247;49.736;8.752;2022-08-19T21:02:20;12.38;;;8.45;;
55368;SDS011;41247;49.736;8.752;2022-08-19T21:06:01;12.43;;;8.20;;
55368;SDS011;41247;49.736;8.752;2022-08-19T21:09:42;11.43;;;7.85;;
55368;SDS011;41247;49.736;8.752;2022-08-19T21:13:23;10.90;;;8.27;;
55368;SDS011;41247;49.736;8.752;2022-08-19T21:17:04;14.38;;;8.82;;
55368;SDS011;41247;49.736;8.752;2022-08-19T21:20:45;9.02;;;7.18;;
55368;SDS011;41247;49.736;8.752;2022-08-19T21:24:26;10.23;;;8.25;;
55368;SDS011;41247;49.736;8.752;2022-08-19T21:28:07;11.32;;;7.78;;
55368;SDS011;41247;49.736;8.752;2022-08-19T21:31:48;10.95;;;8.40;;
55368;SDS011;41247;49.736;8.752;2022-08-19T21:35:28;10.70;;;8.32;;
55368;SDS011;41247;49.736;8.752;2022-08-19T21:39:09;12.80;;;7.85;;
55368;SDS011;41247;49.736;8.752;2022-08-19T21:42:50;13.48;;;9.43;;
55368;SDS011;41247;49.736;8.752;2022-08-19T21:46:31;12.65;;;8.10;;
55368;SDS011;41247;49.736;8.752;2022-08-19T21:50:12;11.93;;;8.07;;
55368;SDS011;41247;49.736;8.752;2022-08-19T21:53:52;10.25;;;8.05;;
55368;SDS011;41247;49.736;8.752;2022-08-19T21:57:33;13.43;;;8.43;;
55368;SDS011;41247;49.736;8.752;2022-08-19T22:01:14;10.45;;;8.63;;
55368;SDS011;41247;49.736;8.752;2022-08-19T22:04:55;15.02;;;8.98;;
55368;SDS011;41247;49.736;8.752;2022-08-19T22:08:35;11.40;;;7.65;;
55368;SDS011;41247;49.736;8.752;2022-08-19T22:12:24;11.77;;;8.20;;